Time;durP1;ratioP1;P1;durP2;ratioP2;P2;SDS_P1;SDS_P2;PMS_P1;PMS_P2;Temp;Humidity;BMP_temperature;BMP_pressure;BME280_temperature;BME280_humidity;BME280_pressure;Samples;Min_cycle;Max_cycle;Signal;HPM_P1;HPM_P2
2023/01/20 00:00:46;;;;;;;47.90;23.13;;;;;;;2.37;92.14;99299.59;7345319;19;20015;-75
2023/01/20 00:03:11;;;;;;;53.10;26.10;;;;;;;2.30;92.21;99311.31;7347379;19;20010;-75
2023/01/20 00:05:36;;;;;;;41.88;22.17;;;;;;;2.43;92.14;99304.59;7350977;19;20022;-75
2023/01/20 00:08:00;;;;;;;34.63;16.52;;;;;;;2.49;92.17;99309.59;7351595;19;20014;-79
2023/01/20 00:10:25;;;;;;;47.03;23.63;;;;;;;2.65;91.53;99293.13;7350842;19;20018;-78
2023/01/20 00:12:50;;;;;;;39.28;17.83;;;;;;;2.47;91.63;99314.09;7355543;19;20386;-79
2023/01/20 00:15:15;;;;;;;42.50;19.67;;;;;;;2.54;91.62;99318.13;7357293;19;20017;-78
2023/01/20 00:17:39;;;;;;;50.10;23.70;;;;;;;2.46;91.75;99316.78;7355653;19;20017;-78
2023/01/20 00:20:04;;;;;;;49.67;26.17;;;;;;;2.44;91.52;99306.31;7350520;19;20030;-80
2023/01/20 00:22:29;;;;;;;39.42;19.23;;;;;;;2.42;91.67;99310.78;7350898;19;20013;-78
2023/01/20 00:24:53;;;;;;;40.50;19.02;;;;;;;2.63;91.82;99305.50;7352962;19;19999;-76
2023/01/20 00:27:18;;;;;;;42.83;22.00;;;;;;;2.55;91.66;99304.06;7350333;19;20010;-76
2023/01/20 00:29:43;;;;;;;44.70;22.60;;;;;;;2.62;91.70;99303.78;7349580;19;20019;-78
2023/01/20 00:32:07;;;;;;;41.83;20.58;;;;;;;2.62;91.62;99303.78;7348742;19;20029;-74
2023/01/20 00:34:32;;;;;;;31.52;16.77;;;;;;;2.58;91.67;99299.59;7349726;19;20323;-75
2023/01/20 00:36:57;;;;;;;31.85;13.77;;;;;;;2.51;91.76;99299.00;7348584;19;20010;-79
2023/01/20 00:39:22;;;;;;;46.50;22.98;;;;;;;2.61;91.74;99300.28;7351444;19;20015;-79
2023/01/20 00:41:46;;;;;;;33.45;17.20;;;;;;;2.65;91.66;99293.13;7349521;19;20019;-77
2023/01/20 00:44:11;;;;;;;52.33;21.48;;;;;;;2.67;91.54;99299.19;7349831;19;20007;-78
2023/01/20 00:46:35;;;;;;;44.20;23.98;;;;;;;2.55;91.53;99293.53;7348858;19;20014;-75
2023/01/20 00:49:00;;;;;;;24.10;12.15;;;;;;;2.53;91.70;99319.06;7341630;19;20073;-77
2023/01/20 00:51:25;;;;;;;41.80;20.77;;;;;;;2.62;91.58;99301.16;7347336;19;20086;-77
2023/01/20 00:53:49;;;;;;;42.85;22.27;;;;;;;2.77;91.33;99300.47;7346574;19;20006;-74
2023/01/20 00:56:14;;;;;;;29.13;14.52;;;;;;;2.75;91.17;99295.28;7350451;19;20330;-80
2023/01/20 00:58:42;;;;;;;48.55;20.90;;;;;;;2.72;90.91;99305.06;7350274;19;20017;-79
2023/01/20 01:01:06;;;;;;;43.38;22.25;;;;;;;2.66;91.09;99311.47;7348298;19;20019;-78
2023/01/20 01:03:31;;;;;;;45.50;23.80;;;;;;;2.71;91.10;99314.75;7351148;19;20021;-80
2023/01/20 01:06:11;;;;;;;45.47;23.17;;;;;;;2.67;91.07;99307.94;7351600;19;20013;-80
2023/01/20 01:08:35;;;;;;;27.35;12.65;;;;;;;2.78;91.09;99315.34;7350615;19;20090;-77
2023/01/20 01:11:00;;;;;;;40.03;19.17;;;;;;;2.83;91.03;99303.66;7347623;19;20026;-74
2023/01/20 01:13:25;;;;;;;41.78;19.65;;;;;;;2.77;90.97;99300.47;7349330;19;20078;-76
2023/01/20 01:15:50;;;;;;;46.65;20.75;;;;;;;2.72;90.98;99298.03;7356992;19;20023;-79
2023/01/20 01:18:14;;;;;;;25.98;14.70;;;;;;;2.76;90.97;99307.50;7359915;19;20056;-76
2023/01/20 01:20:39;;;;;;;29.02;15.55;;;;;;;2.78;91.01;99304.81;7349493;19;20036;-74
2023/01/20 01:23:04;;;;;;;43.97;19.20;;;;;;;2.79;90.88;99317.06;7348355;19;19999;-72
2023/01/20 01:25:28;;;;;;;32.42;14.55;;;;;;;2.98;90.36;99312.66;7344876;19;20019;-72
2023/01/20 01:27:53;;;;;;;30.15;14.57;;;;;;;2.90;90.26;99310.38;7347805;19;20037;-73
2023/01/20 01:30:17;;;;;;;27.17;12.20;;;;;;;2.97;90.20;99321.47;7346123;19;20078;-72
2023/01/20 01:32:42;;;;;;;42.67;19.88;;;;;;;2.92;89.77;99313.81;7345089;19;20319;-69
2023/01/20 01:35:07;;;;;;;31.70;17.30;;;;;;;3.02;89.65;99318.63;7345805;19;20348;-68
2023/01/20 01:37:32;;;;;;;37.97;19.42;;;;;;;2.89;89.47;99299.91;7344896;19;20018;-73
2023/01/20 01:39:56;;;;;;;35.13;17.98;;;;;;;2.92;89.51;99308.53;7344992;19;20006;-72
2023/01/20 01:42:25;;;;;;;36.40;19.75;;;;;;;2.80;89.61;99300.34;7343290;19;20014;-70
2023/01/20 01:45:08;;;;;;;36.65;14.35;;;;;;;3.36;90.32;99304.75;7345348;19;20374;-65
2023/01/20 01:47:34;;;;;;;31.73;14.75;;;;;;;4.01;90.91;99307.66;7345747;19;20365;-72
2023/01/20 01:49:58;;;;;;;43.25;20.10;;;;;;;4.27;89.84;99316.03;7346707;19;20017;-63
2023/01/20 01:52:23;;;;;;;41.28;20.77;;;;;;;4.38;89.61;99317.19;7349336;19;20022;-74
2023/01/20 01:54:49;;;;;;;22.05;13.07;;;;;;;4.47;89.07;99310.59;7347397;19;20015;-71
2023/01/20 01:57:14;;;;;;;45.97;20.27;;;;;;;4.27;87.22;99302.84;7346321;19;20006;-76
2023/01/20 01:59:38;;;;;;;38.42;19.08;;;;;;;3.93;86.65;99315.09;7346694;19;20018;-74
2023/01/20 02:02:03;;;;;;;41.40;20.35;;;;;;;3.50;86.89;99316.31;7348653;19;20006;-68
2023/01/20 02:04:30;;;;;;;37.05;19.50;;;;;;;3.51;86.54;99304.00;7346596;19;20017;-70
2023/01/20 02:06:59;;;;;;;40.65;17.60;;;;;;;3.37;86.82;99309.94;7357595;19;20014;-66
2023/01/20 02:09:25;;;;;;;35.15;16.65;;;;;;;3.37;86.85;99304.69;7347210;19;20021;-73
2023/01/20 02:11:54;;;;;;;27.95;15.02;;;;;;;3.46;86.56;99298.97;7343687;19;20034;-68
2023/01/20 02:14:23;;;;;;;29.48;14.80;;;;;;;3.31;86.64;99288.28;7348820;19;20074;-71
2023/01/20 02:17:20;;;;;;;35.10;18.08;;;;;;;3.14;86.76;99295.22;7350513;19;20472;-67
2023/01/20 02:19:50;;;;;;;34.78;16.38;;;;;;;3.16;86.84;99305.69;7347003;19;20098;-73
2023/01/20 02:23:03;;;;;;;20.73;10.20;;;;;;;3.37;86.68;99294.13;7347188;19;20010;-70
2023/01/20 02:25:45;;;;;;;41.70;17.83;;;;;;;3.12;86.08;99307.59;7341360;19;20046;-72
2023/01/20 02:29:00;;;;;;;36.53;17.90;;;;;;;3.15;86.66;99325.91;7343924;19;20018;-70
2023/01/20 02:32:01;;;;;;;43.88;20.13;;;;;;;3.09;86.35;99305.09;7342849;19;20011;-69
2023/01/20 02:34:47;;;;;;;37.70;18.90;;;;;;;3.08;86.39;99313.94;7342659;19;20026;-69
2023/01/20 02:37:17;;;;;;;37.75;20.10;;;;;;;2.96;86.56;99314.50;7340331;19;20018;-70
2023/01/20 02:39:54;;;;;;;39.95;19.00;;;;;;;3.05;86.83;99311.44;7340192;19;20014;-68
2023/01/20 02:42:18;;;;;;;36.83;19.83;;;;;;;2.78;86.69;99313.56;7342436;19;20458;-70
2023/01/20 02:44:52;;;;;;;41.45;18.45;;;;;;;2.95;87.00;99314.56;7340427;19;20915;-70
2023/01/20 02:47:32;;;;;;;19.13;9.90;;;;;;;3.31;86.50;99304.94;7341198;19;20126;-70
2023/01/20 02:50:12;;;;;;;31.92;14.38;;;;;;;3.22;85.50;99332.59;7340099;19;20017;-76
2023/01/20 02:52:47;;;;;;;30.98;15.88;;;;;;;3.07;85.69;99333.28;7342406;19;20010;-69
2023/01/20 02:55:19;;;;;;;35.13;17.60;;;;;;;2.96;85.99;99322.41;7341438;19;20022;-69
2023/01/20 02:57:50;;;;;;;37.72;18.65;;;;;;;2.87;86.22;99320.19;7342155;19;20132;-71
2023/01/20 03:00:21;;;;;;;37.00;17.83;;;;;;;2.97;86.35;99329.38;7340152;19;20463;-70
2023/01/20 03:02:49;;;;;;;42.28;22.40;;;;;;;2.73;86.30;99339.22;7345775;19;20026;-69
2023/01/20 03:05:19;;;;;;;31.05;13.05;;;;;;;2.88;86.61;99332.44;7345063;19;20013;-73
2023/01/20 03:07:46;;;;;;;35.03;17.65;;;;;;;2.85;86.60;99335.19;7343919;19;20037;-71
2023/01/20 03:10:16;;;;;;;29.05;12.68;;;;;;;3.01;86.75;99344.13;7344620;19;20351;-70
2023/01/20 03:12:55;;;;;;;37.88;17.02;;;;;;;2.90;86.86;99341.97;7343058;19;20023;-69
2023/01/20 03:15:34;;;;;;;35.13;17.80;;;;;;;2.89;86.71;99342.03;7341734;19;20024;-71
2023/01/20 03:17:58;;;;;;;33.42;16.08;;;;;;;2.80;86.56;99351.22;7348369;19;20026;-71
2023/01/20 03:20:23;;;;;;;32.75;15.30;;;;;;;2.80;86.56;99355.63;7344034;19;20318;-72
2023/01/20 03:22:48;;;;;;;45.28;18.73;;;;;;;2.83;86.92;99342.28;7347554;19;20453;-75
2023/01/20 03:25:13;;;;;;;24.92;12.70;;;;;;;3.09;86.91;99354.28;7347000;19;20007;-72
2023/01/20 03:27:40;;;;;;;39.30;18.40;;;;;;;2.97;86.41;99353.06;7345893;19;20097;-70
2023/01/20 03:30:12;;;;;;;40.22;16.85;;;;;;;2.93;86.45;99356.78;7345919;19;20026;-69
2023/01/20 03:32:37;;;;;;;39.97;19.15;;;;;;;2.81;86.16;99355.56;7343530;19;20089;-72
2023/01/20 03:35:01;;;;;;;36.05;17.95;;;;;;;2.89;86.53;99363.09;7347835;19;20010;-68
2023/01/20 03:37:28;;;;;;;42.88;17.35;;;;;;;2.86;86.47;99360.59;7345158;19;20015;-65
2023/01/20 03:39:52;;;;;;;37.80;17.13;;;;;;;2.93;86.56;99359.41;7344406;19;20021;-66
2023/01/20 03:42:36;;;;;;;37.90;18.67;;;;;;;2.96;86.65;99371.56;7344762;19;20036;-65
2023/01/20 03:45:41;;;;;;;35.60;17.17;;;;;;;3.10;86.67;99370.03;7344605;19;20412;-68
2023/01/20 03:48:16;;;;;;;42.17;20.92;;;;;;;2.95;86.11;99375.13;7339754;19;20037;-66
2023/01/20 03:50:58;;;;;;;40.08;19.08;;;;;;;3.20;85.99;99381.00;7341697;19;20010;-75
2023/01/20 03:53:40;;;;;;;42.83;17.80;;;;;;;2.99;85.48;99366.16;7339586;19;20026;-71
2023/01/20 03:56:28;;;;;;;30.75;15.35;;;;;;;3.08;85.86;99374.50;7342116;19;20123;-68
2023/01/20 03:58:56;;;;;;;31.10;15.30;;;;;;;3.10;85.66;99369.16;7341292;19;20030;-69
2023/01/20 04:01:27;;;;;;;41.13;17.42;;;;;;;3.11;85.51;99370.88;7342274;19;20029;-69
2023/01/20 04:03:53;;;;;;;37.38;17.30;;;;;;;3.05;85.44;99368.53;7346760;19;20014;-70
2023/01/20 04:06:21;;;;;;;36.33;18.55;;;;;;;3.03;85.40;99373.88;7344538;19;20017;-69
2023/01/20 04:08:53;;;;;;;42.67;17.90;;;;;;;3.13;85.43;99380.44;7342222;19;20322;-69
2023/01/20 04:11:19;;;;;;;22.60;11.75;;;;;;;3.25;84.64;99374.59;7343576;19;20330;-69
2023/01/20 04:13:44;;;;;;;29.25;12.35;;;;;;;3.10;84.81;99366.53;7343130;19;20044;-68
2023/01/20 04:16:12;;;;;;;34.67;18.92;;;;;;;3.09;84.35;99363.03;7341173;19;20014;-68
2023/01/20 04:18:45;;;;;;;39.50;17.85;;;;;;;3.03;84.42;99373.03;7342405;19;20412;-71
2023/01/20 04:21:16;;;;;;;39.17;18.90;;;;;;;2.95;84.57;99370.72;7340782;19;20019;-73
2023/01/20 04:23:49;;;;;;;32.97;14.63;;;;;;;3.18;84.70;99375.78;7341048;19;20051;-71
2023/01/20 04:26:14;;;;;;;38.42;16.75;;;;;;;3.13;84.56;99385.69;7346574;19;20040;-73
2023/01/20 04:28:38;;;;;;;36.92;18.10;;;;;;;3.05;84.09;99377.28;7344399;19;20105;-72
2023/01/20 04:31:03;;;;;;;31.98;14.90;;;;;;;3.13;84.34;99380.44;7341770;19;20002;-72
2023/01/20 04:33:28;;;;;;;35.97;17.80;;;;;;;3.08;84.31;99395.56;7347762;19;20022;-72
2023/01/20 04:35:52;;;;;;;37.67;17.80;;;;;;;3.01;84.36;99385.41;7347495;19;20006;-72
2023/01/20 04:38:17;;;;;;;36.70;18.85;;;;;;;2.97;84.24;99402.25;7349334;19;20006;-70
2023/01/20 04:40:42;;;;;;;32.25;16.30;;;;;;;3.01;84.41;99393.28;7345607;19;20006;-69
2023/01/20 04:43:08;;;;;;;43.58;18.48;;;;;;;2.87;84.16;99394.75;7349478;19;20433;-71
2023/01/20 04:45:33;;;;;;;36.22;17.33;;;;;;;2.95;84.45;99394.41;7347135;19;20045;-68
2023/01/20 04:47:58;;;;;;;36.40;16.38;;;;;;;2.86;84.16;99403.56;7348504;19;20063;-68
2023/01/20 04:50:22;;;;;;;33.00;15.75;;;;;;;3.09;84.54;99399.91;7350101;19;20029;-70
2023/01/20 04:52:47;;;;;;;41.85;20.25;;;;;;;3.06;83.80;99407.94;7347770;19;20029;-67
2023/01/20 04:55:12;;;;;;;33.70;17.25;;;;;;;3.08;83.80;99408.75;7349821;19;20018;-69
2023/01/20 04:57:37;;;;;;;22.40;12.23;;;;;;;3.08;83.96;99414.00;7345622;19;20039;-69
2023/01/20 05:00:03;;;;;;;36.80;17.38;;;;;;;3.11;84.12;99413.03;7348471;19;20010;-68
2023/01/20 05:02:29;;;;;;;38.58;17.48;;;;;;;3.04;84.13;99394.03;7349888;19;20014;-69
2023/01/20 05:04:53;;;;;;;34.53;17.35;;;;;;;3.05;84.14;99402.78;7350492;19;20014;-69
2023/01/20 05:07:18;;;;;;;44.72;20.15;;;;;;;3.00;84.06;99400.34;7351398;19;20018;-70
2023/01/20 05:09:43;;;;;;;37.45;17.80;;;;;;;3.19;84.02;99392.44;7347579;19;20033;-69
2023/01/20 05:12:08;;;;;;;30.05;16.08;;;;;;;3.20;83.76;99400.28;7348438;19;20492;-68
2023/01/20 05:14:33;;;;;;;35.47;16.58;;;;;;;3.15;83.73;99417.25;7346544;19;20027;-70
2023/01/20 05:16:57;;;;;;;37.03;17.67;;;;;;;3.14;84.01;99405.00;7350958;19;20023;-68
2023/01/20 05:19:22;;;;;;;36.08;16.35;;;;;;;3.12;83.98;99412.97;7350757;19;20006;-69
2023/01/20 05:21:47;;;;;;;17.52;9.10;;;;;;;3.43;83.83;99408.91;7347513;19;20519;-71
2023/01/20 05:24:11;;;;;;;22.75;12.68;;;;;;;3.46;83.45;99412.28;7348028;19;20018;-71
2023/01/20 05:26:36;;;;;;;40.17;17.17;;;;;;;3.43;82.48;99411.56;7348989;19;20467;-70
2023/01/20 05:29:01;;;;;;;33.50;16.58;;;;;;;3.41;82.27;99423.94;7347794;19;20007;-72
2023/01/20 05:31:26;;;;;;;47.13;18.30;;;;;;;3.31;82.30;99409.47;7349841;19;20018;-69
2023/01/20 05:33:50;;;;;;;27.55;13.43;;;;;;;3.40;82.43;99424.84;7347437;19;20011;-69
2023/01/20 05:36:15;;;;;;;23.30;11.32;;;;;;;3.41;82.46;99419.53;7346749;19;20078;-71
2023/01/20 05:38:39;;;;;;;30.23;14.07;;;;;;;3.51;82.09;99435.75;7349977;19;20457;-71
2023/01/20 05:41:07;;;;;;;31.98;14.68;;;;;;;3.39;81.95;99412.59;7345605;19;20090;-70
2023/01/20 05:43:32;;;;;;;38.15;16.80;;;;;;;3.20;82.20;99413.47;7346727;19;20018;-69
2023/01/20 05:45:56;;;;;;;34.95;16.13;;;;;;;3.22;82.47;99411.63;7346417;19;20018;-69
2023/01/20 05:48:21;;;;;;;28.25;15.30;;;;;;;3.51;82.06;99412.03;7345748;19;20456;-70
2023/01/20 05:50:46;;;;;;;35.45;17.00;;;;;;;3.26;81.94;99405.28;7344760;19;20511;-70
2023/01/20 05:53:11;;;;;;;34.95;18.05;;;;;;;3.38;81.52;99424.97;7347347;19;20018;-69
2023/01/20 05:55:35;;;;;;;35.47;15.68;;;;;;;3.28;81.80;99416.59;7346715;19;20019;-69
2023/01/20 05:58:01;;;;;;;36.38;16.50;;;;;;;3.25;81.86;99432.56;7345669;19;20021;-69
2023/01/20 06:00:26;;;;;;;29.63;13.73;;;;;;;3.23;82.41;99436.19;7346304;19;20018;-68
2023/01/20 06:02:50;;;;;;;37.83;17.00;;;;;;;3.23;82.48;99426.50;7344516;19;20035;-69
2023/01/20 06:05:15;;;;;;;32.75;14.93;;;;;;;3.41;82.15;99435.34;7349118;19;20334;-71
2023/01/20 06:07:40;;;;;;;33.10;16.42;;;;;;;3.38;82.06;99426.75;7347754;19;20018;-70
2023/01/20 06:10:04;;;;;;;31.95;13.98;;;;;;;3.42;81.83;99433.56;7347799;19;20014;-70
2023/01/20 06:12:29;;;;;;;36.63;17.38;;;;;;;3.27;81.88;99438.59;7349095;19;20020;-70
2023/01/20 06:14:53;;;;;;;34.17;18.10;;;;;;;3.33;81.77;99434.84;7346662;19;20014;-68
2023/01/20 06:17:18;;;;;;;36.72;16.75;;;;;;;3.44;81.37;99437.84;7348942;19;20025;-68
2023/01/20 06:19:43;;;;;;;36.55;17.08;;;;;;;3.40;81.17;99443.31;7346698;19;20074;-68
2023/01/20 06:22:13;;;;;;;27.08;11.80;;;;;;;3.41;81.57;99452.94;7347724;19;20017;-69
2023/01/20 06:24:38;;;;;;;28.63;11.68;;;;;;;3.34;81.66;99446.22;7346850;19;20018;-73
2023/01/20 06:27:03;;;;;;;31.75;15.90;;;;;;;3.30;81.77;99450.78;7346413;19;20095;-70
2023/01/20 06:29:29;;;;;;;32.55;15.98;;;;;;;3.25;82.02;99452.78;7347313;19;20080;-71
2023/01/20 06:31:54;;;;;;;38.97;16.23;;;;;;;3.25;82.13;99456.28;7346221;19;20582;-68
2023/01/20 06:34:19;;;;;;;38.00;14.82;;;;;;;3.30;82.32;99463.94;7344991;19;20467;-68
2023/01/20 06:36:43;;;;;;;30.95;15.43;;;;;;;3.31;82.61;99456.91;7345448;19;20372;-67
2023/01/20 06:39:08;;;;;;;38.53;17.17;;;;;;;3.37;82.61;99464.53;7346495;19;20006;-68
2023/01/20 06:41:32;;;;;;;29.67;15.70;;;;;;;3.38;82.82;99466.25;7344606;19;20011;-68
2023/01/20 06:43:57;;;;;;;22.05;9.57;;;;;;;3.44;82.69;99468.59;7343941;19;20017;-70
2023/01/20 06:46:22;;;;;;;33.80;17.20;;;;;;;3.37;82.83;99483.00;7344710;19;20017;-69
2023/01/20 06:48:47;;;;;;;31.83;17.80;;;;;;;3.44;82.74;99485.28;7345878;19;20088;-70
2023/01/20 06:51:14;;;;;;;41.58;19.23;;;;;;;3.35;82.74;99490.09;7346977;19;20014;-69
2023/01/20 06:53:39;;;;;;;37.53;18.73;;;;;;;3.40;82.73;99494.22;7347611;19;20003;-68
2023/01/20 06:56:04;;;;;;;36.72;16.70;;;;;;;3.32;82.35;99506.91;7344352;19;20443;-69
2023/01/20 06:58:31;;;;;;;34.50;15.52;;;;;;;3.56;82.69;99511.06;7345633;19;20069;-71
2023/01/20 07:00:57;;;;;;;36.20;20.70;;;;;;;3.44;82.02;99521.31;7351423;19;20035;-70
2023/01/20 07:03:23;;;;;;;30.75;15.82;;;;;;;3.49;82.07;99527.25;7347248;19;20024;-69
2023/01/20 07:05:57;;;;;;;19.67;10.20;;;;;;;3.67;82.08;99526.41;7349640;19;20382;-71
2023/01/20 07:08:21;;;;;;;30.00;15.35;;;;;;;3.53;81.49;99520.91;7353643;19;20018;-69
2023/01/20 07:10:46;;;;;;;36.33;17.30;;;;;;;3.39;81.51;99525.91;7345152;19;20018;-72
2023/01/20 07:13:11;;;;;;;36.72;16.45;;;;;;;3.41;81.81;99524.94;7343455;19;20467;-72
2023/01/20 07:15:35;;;;;;;23.25;11.45;;;;;;;3.60;81.32;99533.75;7345690;19;20010;-70
2023/01/20 07:18:00;;;;;;;32.08;16.35;;;;;;;3.33;81.43;99534.97;7343310;19;20028;-71
2023/01/20 07:20:24;;;;;;;37.58;19.10;;;;;;;3.16;81.33;99526.94;7343747;19;20037;-69
2023/01/20 07:22:49;;;;;;;38.03;18.00;;;;;;;3.14;81.58;99529.63;7345644;19;20017;-70
2023/01/20 07:25:14;;;;;;;29.42;13.88;;;;;;;3.37;81.90;99535.69;7341825;19;20053;-71
2023/01/20 07:27:38;;;;;;;40.67;18.60;;;;;;;3.41;81.71;99530.19;7343511;19;20024;-70
2023/01/20 07:30:03;;;;;;;31.67;16.38;;;;;;;3.39;81.71;99531.19;7347558;19;20014;-72
2023/01/20 07:32:29;;;;;;;38.40;16.45;;;;;;;3.41;81.44;99527.56;7343750;19;20007;-68
2023/01/20 07:34:54;;;;;;;36.13;15.85;;;;;;;3.62;80.82;99533.66;7344877;19;20499;-72
2023/01/20 07:37:18;;;;;;;28.95;14.13;;;;;;;3.74;80.00;99538.38;7342154;19;20740;-72
2023/01/20 07:39:43;;;;;;;26.33;12.30;;;;;;;3.60;80.17;99538.16;7346290;19;20013;-70
2023/01/20 07:42:08;;;;;;;32.17;16.13;;;;;;;3.45;80.40;99529.16;7347982;19;20021;-73
2023/01/20 07:44:33;;;;;;;27.55;15.07;;;;;;;3.42;80.74;99534.53;7349528;19;20006;-71
2023/01/20 07:46:58;;;;;;;34.95;16.63;;;;;;;3.40;80.86;99530.25;7351265;19;20025;-69
2023/01/20 07:49:23;;;;;;;36.22;11.50;;;;;;;3.52;81.00;99535.84;7349528;19;20016;-71
2023/01/20 07:51:47;;;;;;;29.65;12.90;;;;;;;3.65;80.12;99522.97;7347115;19;20022;-70
2023/01/20 07:54:12;;;;;;;25.42;12.13;;;;;;;3.77;79.70;99519.78;7346990;19;20388;-71
2023/01/20 07:56:36;;;;;;;28.52;13.10;;;;;;;3.76;79.30;99523.34;7344242;19;20529;-72
2023/01/20 07:59:01;;;;;;;35.85;16.35;;;;;;;3.60;79.32;99517.06;7346545;19;20437;-72
2023/01/20 08:01:28;;;;;;;36.85;15.73;;;;;;;3.50;79.75;99515.78;7346542;19;20018;-71
2023/01/20 08:03:53;;;;;;;41.30;21.30;;;;;;;3.46;79.90;99514.19;7345479;19;20365;-71
2023/01/20 08:06:21;;;;;;;39.47;17.20;;;;;;;3.55;79.99;99516.41;7346955;19;20013;-72
2023/01/20 08:08:46;;;;;;;42.20;17.38;;;;;;;3.55;80.13;99513.78;7353327;19;20003;-71
2023/01/20 08:11:12;;;;;;;41.88;17.67;;;;;;;3.55;80.20;99513.78;7355517;19;20023;-73
2023/01/20 08:13:38;;;;;;;37.53;18.40;;;;;;;3.61;79.95;99537.25;7353037;19;20156;-71
2023/01/20 08:16:05;;;;;;;31.83;15.63;;;;;;;3.73;79.33;99525.25;7364252;19;20022;-71
2023/01/20 08:18:31;;;;;;;35.13;16.85;;;;;;;3.69;79.33;99529.84;7354897;19;20345;-71
2023/01/20 08:20:55;;;;;;;24.20;10.52;;;;;;;3.79;79.34;99517.09;7351137;19;20009;-73
2023/01/20 08:23:20;;;;;;;42.00;19.42;;;;;;;3.57;79.15;99523.34;7350931;19;20010;-73
2023/01/20 08:25:45;;;;;;;33.50;15.57;;;;;;;3.58;79.38;99534.75;7348930;19;20018;-74
2023/01/20 08:28:09;;;;;;;41.20;16.60;;;;;;;3.69;79.08;99532.47;7351174;19;20006;-69
2023/01/20 08:30:34;;;;;;;41.15;17.20;;;;;;;3.77;78.57;99525.06;7347388;19;20019;-69
2023/01/20 08:32:59;;;;;;;38.22;15.13;;;;;;;3.55;78.86;99522.53;7350504;19;20773;-69
2023/01/20 08:35:23;;;;;;;31.70;16.77;;;;;;;3.53;79.29;99534.06;7347436;19;20338;-69
2023/01/20 08:37:48;;;;;;;33.45;17.52;;;;;;;3.58;79.53;99524.19;7348476;19;20020;-71
2023/01/20 08:40:13;;;;;;;33.75;15.73;;;;;;;3.61;79.49;99531.97;7350214;19;20011;-68
2023/01/20 08:42:38;;;;;;;30.17;12.88;;;;;;;3.66;79.97;99524.69;7349351;19;20026;-70
2023/01/20 08:45:05;;;;;;;31.23;13.50;;;;;;;3.82;79.79;99532.78;7349099;19;20022;-70
2023/01/20 08:47:33;;;;;;;35.10;16.92;;;;;;;3.77;79.54;99540.88;7351154;19;20022;-69
2023/01/20 08:49:58;;;;;;;24.27;13.73;;;;;;;3.86;79.57;99542.22;7351945;19;20030;-72
2023/01/20 08:52:23;;;;;;;39.47;20.63;;;;;;;3.73;78.60;99543.72;7349831;19;20103;-69
2023/01/20 08:54:51;;;;;;;42.63;24.63;;;;;;;3.50;78.66;99550.88;7348197;19;20006;-70
2023/01/20 08:57:16;;;;;;;34.00;17.63;;;;;;;3.52;79.02;99549.03;7351875;19;20027;-69
2023/01/20 08:59:41;;;;;;;39.30;20.58;;;;;;;3.70;78.79;99552.63;7348338;19;20038;-69
2023/01/20 09:02:05;;;;;;;44.67;21.60;;;;;;;3.69;78.60;99552.72;7350109;19;20049;-70
2023/01/20 09:04:30;;;;;;;25.85;12.02;;;;;;;3.68;78.86;99557.13;7347442;19;20074;-70
2023/01/20 09:06:55;;;;;;;42.95;20.02;;;;;;;3.51;78.56;99559.63;7347014;19;20074;-69
2023/01/20 09:09:21;;;;;;;46.97;21.55;;;;;;;3.81;78.61;99562.69;7344791;19;20468;-69
2023/01/20 09:11:49;;;;;;;42.65;20.98;;;;;;;3.60;78.20;99564.53;7347302;19;20015;-69
2023/01/20 09:14:14;;;;;;;38.38;16.80;;;;;;;3.79;78.64;99565.41;7350200;19;20006;-69
2023/01/20 09:16:38;;;;;;;37.00;17.58;;;;;;;3.76;78.41;99565.53;7347229;19;20022;-69
2023/01/20 09:19:03;;;;;;;28.95;14.57;;;;;;;3.75;78.31;99577.00;7348430;19;20010;-69
2023/01/20 09:21:28;;;;;;;35.08;17.33;;;;;;;3.80;78.31;99585.56;7344891;19;20082;-69
2023/01/20 09:23:52;;;;;;;23.27;10.73;;;;;;;3.93;78.50;99584.09;7347344;19;20079;-69
2023/01/20 09:26:17;;;;;;;25.10;14.35;;;;;;;3.71;78.20;99579.88;7349491;19;20472;-71
2023/01/20 09:28:45;;;;;;;42.20;19.02;;;;;;;3.81;78.29;99589.94;7345952;19;20010;-69
2023/01/20 09:31:10;;;;;;;34.92;16.92;;;;;;;3.84;77.96;99583.63;7348126;19;20090;-70
2023/01/20 09:33:37;;;;;;;40.28;17.63;;;;;;;3.87;78.08;99579.09;7348354;19;20036;-68
2023/01/20 09:36:05;;;;;;;42.97;19.20;;;;;;;3.77;77.74;99587.47;7347828;19;20018;-68
2023/01/20 09:44:46;;;;;;;29.00;16.23;;;;;;;3.86;77.33;99589.69;7345593;19;20014;-70
2023/01/20 09:47:26;;;;;;;38.05;19.63;;;;;;;3.84;77.45;99605.59;7349537;19;20020;-68
2023/01/20 09:53:21;;;;;;;40.15;16.98;;;;;;;4.06;77.73;99604.66;7346582;19;20178;-73
2023/01/20 09:55:46;;;;;;;30.90;17.65;;;;;;;3.84;77.43;99600.31;7345836;19;20331;-69
2023/01/20 09:58:24;;;;;;;45.10;21.05;;;;;;;3.84;77.37;99610.84;7344601;19;20314;-70
2023/01/20 10:00:56;;;;;;;39.25;17.67;;;;;;;3.81;77.61;99605.75;7343809;19;20022;-71
2023/01/20 10:03:35;;;;;;;37.58;17.73;;;;;;;4.01;77.73;99607.47;7345053;19;20501;-71
2023/01/20 10:06:03;;;;;;;32.42;17.67;;;;;;;3.90;76.98;99612.38;7344022;19;20014;-71
2023/01/20 10:09:11;;;;;;;43.63;20.92;;;;;;;3.74;76.88;99603.44;7344877;19;20078;-70
2023/01/20 10:11:45;;;;;;;21.67;10.38;;;;;;;4.16;77.56;99605.94;7350262;19;20070;-72
2023/01/20 10:14:33;;;;;;;33.70;17.00;;;;;;;4.08;76.86;99597.50;7353488;19;20015;-69
2023/01/20 10:17:23;;;;;;;33.30;16.90;;;;;;;4.04;76.92;99601.22;7347793;19;20022;-72
2023/01/20 10:20:02;;;;;;;40.58;17.92;;;;;;;3.98;76.43;99595.28;7343005;19;20027;-70
2023/01/20 10:22:39;;;;;;;39.80;22.48;;;;;;;4.09;76.31;99599.22;7347942;19;20019;-70
2023/01/20 10:25:07;;;;;;;32.95;16.00;;;;;;;4.00;76.49;99609.25;7354002;19;20023;-69
2023/01/20 10:27:36;;;;;;;27.55;12.98;;;;;;;4.08;76.90;99601.00;7347246;19;20461;-69
2023/01/20 10:30:10;;;;;;;34.85;17.85;;;;;;;4.04;76.78;99593.31;7345623;19;20032;-70
2023/01/20 10:32:44;;;;;;;35.92;15.02;;;;;;;4.11;76.65;99592.94;7346467;19;20035;-70
2023/01/20 10:35:18;;;;;;;23.88;11.35;;;;;;;4.44;77.05;99605.50;7347764;19;20304;-70
2023/01/20 10:37:43;;;;;;;31.45;16.08;;;;;;;4.36;76.31;99590.88;7344488;19;20340;-71
2023/01/20 10:40:37;;;;;;;37.47;20.80;;;;;;;4.12;75.89;99604.34;7345788;19;20006;-68
2023/01/20 10:43:14;;;;;;;40.72;18.80;;;;;;;4.06;75.82;99605.50;7347102;19;20022;-69
2023/01/20 10:45:54;;;;;;;42.28;19.77;;;;;;;4.04;75.86;99601.22;7344412;19;20693;-68
2023/01/20 10:48:31;;;;;;;35.83;20.10;;;;;;;4.09;75.98;99617.69;7346262;19;20017;-69
2023/01/20 10:51:04;;;;;;;24.92;12.73;;;;;;;4.32;76.08;99631.53;7344925;19;20015;-71
2023/01/20 10:53:44;;;;;;;35.13;16.70;;;;;;;4.22;75.56;99597.72;7345312;19;20017;-71
2023/01/20 10:56:21;;;;;;;29.98;16.80;;;;;;;4.37;76.00;99604.94;7342807;19;20146;-69
2023/01/20 10:58:46;;;;;;;34.55;17.75;;;;;;;4.24;75.51;99601.16;7344726;19;20344;-70
2023/01/20 11:01:15;;;;;;;40.53;19.02;;;;;;;4.11;75.41;99602.63;7342803;19;20022;-70
2023/01/20 11:03:41;;;;;;;35.78;20.10;;;;;;;4.11;75.63;99613.19;7344225;19;20094;-69
2023/01/20 11:06:09;;;;;;;32.88;17.27;;;;;;;4.20;75.63;99596.94;7340641;19;20037;-71
2023/01/20 11:08:34;;;;;;;33.25;18.27;;;;;;;4.23;75.41;99615.28;7343454;19;20030;-68
2023/01/20 11:11:08;;;;;;;30.58;15.77;;;;;;;4.47;75.68;99621.19;7344354;19;20113;-69
2023/01/20 11:13:33;;;;;;;30.33;15.18;;;;;;;4.29;75.67;99636.94;7342988;19;20034;-69
2023/01/20 11:16:10;;;;;;;36.67;17.52;;;;;;;4.35;75.78;99626.13;7344586;19;20100;-71
2023/01/20 11:18:34;;;;;;;23.85;11.43;;;;;;;4.40;75.83;99620.63;7344987;19;20039;-71
2023/01/20 11:21:03;;;;;;;32.13;13.48;;;;;;;4.34;75.78;99618.25;7343168;19;20015;-70
2023/01/20 11:23:29;;;;;;;34.88;16.13;;;;;;;4.30;76.16;99604.34;7342984;19;20022;-68
2023/01/20 11:25:59;;;;;;;25.50;12.57;;;;;;;4.57;75.75;99611.91;7343026;19;20014;-70
2023/01/20 11:28:24;;;;;;;28.88;16.25;;;;;;;4.29;74.86;99602.63;7346004;19;20023;-71
2023/01/20 11:30:54;;;;;;;31.33;15.13;;;;;;;4.34;75.31;99615.63;7344057;19;20011;-70
2023/01/20 11:33:23;;;;;;;31.73;15.27;;;;;;;4.36;75.27;99616.41;7344119;19;20018;-71
2023/01/20 11:36:04;;;;;;;36.80;17.80;;;;;;;4.24;75.35;99616.97;7341654;19;20021;-69
2023/01/20 11:38:46;;;;;;;29.48;13.85;;;;;;;4.27;75.93;99608.94;7343301;19;20024;-69